Time;durP1;ratioP1;P1;durP2;ratioP2;P2;SDS_P1;SDS_P2;PMS_P1;PMS_P2;Temp;Humidity;BMP_temperature;BMP_pressure;BME280_temperature;BME280_humidity;BME280_pressure;Samples;Min_cycle;Max_cycle;Signal;HPM_P1;HPM_P2
2021/03/24 00:00:20;;;;;;;5.17;3.00;;;5.10;91.00;12.60;100168.00;;;;4982480;28;20197;-68
2021/03/24 00:02:46;;;;;;;4.97;3.40;;;5.10;91.00;12.50;100127.00;;;;5050587;28;20430;-68
2021/03/24 00:05:17;;;;;;;6.00;3.90;;;5.10;91.00;12.50;100169.00;;;;5016666;28;20178;-68
2021/03/24 00:07:43;;;;;;;5.65;3.35;;;5.10;91.00;12.40;100164.00;;;;5049580;28;20590;-68
2021/03/24 00:10:10;;;;;;;5.25;3.30;;;5.10;91.00;12.50;100158.00;;;;5050632;28;20261;-68
2021/03/24 00:12:36;;;;;;;4.90;3.03;;;5.00;90.90;12.60;100167.00;;;;5017139;28;20213;-68
2021/03/24 00:15:05;;;;;;;5.85;3.78;;;5.10;91.00;12.60;100157.00;;;;5032405;28;20186;-67
2021/03/24 00:17:31;;;;;;;5.75;4.22;;;5.10;91.00;12.60;100166.00;;;;5033288;28;20232;-66
2021/03/24 00:19:56;;;;;;;6.27;4.30;;;5.10;91.00;12.40;100165.00;;;;5016523;28;20660;-67
2021/03/24 00:22:22;;;;;;;6.20;3.97;;;5.10;91.00;12.60;100158.00;;;;5049362;28;20822;-67
2021/03/24 00:24:49;;;;;;;5.23;3.60;;;5.10;91.00;12.60;100147.00;;;;5033263;28;20182;-68
2021/03/24 00:27:14;;;;;;;5.55;3.80;;;5.10;91.00;12.40;100144.00;;;;5049597;28;20193;-67
2021/03/24 00:29:40;;;;;;;5.43;3.70;;;5.10;91.00;12.30;100153.00;;;;5032532;28;20178;-67
2021/03/24 00:32:06;;;;;;;5.77;4.20;;;5.10;91.00;12.50;100148.00;;;;5050912;28;20760;-67
2021/03/24 00:34:32;;;;;;;4.57;3.25;;;5.10;91.00;12.60;100163.00;;;;5050347;28;20182;-67
2021/03/24 00:36:58;;;;;;;5.90;3.60;;;5.10;91.00;12.50;100147.00;;;;5049772;28;20743;-67
2021/03/24 00:39:24;;;;;;;5.33;3.83;;;5.10;91.00;12.50;100154.00;;;;5032923;28;20181;-68
2021/03/24 00:41:49;;;;;;;5.50;3.53;;;5.10;91.00;12.60;100153.00;;;;5032538;28;20320;-68
2021/03/24 00:44:15;;;;;;;7.20;4.50;;;5.10;91.00;12.40;100155.00;;;;5032655;28;20224;-67
2021/03/24 00:46:41;;;;;;;7.00;4.47;;;5.10;91.00;12.40;100158.00;;;;5033138;28;20228;-66
2021/03/24 00:49:06;;;;;;;6.03;3.80;;;5.10;91.00;12.40;100154.00;;;;5032347;28;20237;-68
2021/03/24 00:51:32;;;;;;;6.27;4.30;;;5.10;91.00;12.60;100141.00;;;;5050950;28;20229;-68
2021/03/24 00:53:58;;;;;;;5.07;3.60;;;5.10;91.00;12.50;100155.00;;;;5016391;28;20328;-69
2021/03/24 00:56:24;;;;;;;6.00;4.00;;;5.10;91.00;12.50;100147.00;;;;5031836;28;20464;-67
2021/03/24 00:58:50;;;;;;;5.60;3.70;;;5.10;91.00;12.50;100144.00;;;;5048847;28;20293;-69
2021/03/24 01:01:15;;;;;;;5.70;3.97;;;5.10;91.00;12.70;100147.00;;;;5015387;28;20202;-68
2021/03/24 01:03:41;;;;;;;5.57;4.10;;;5.10;91.00;12.60;100147.00;;;;5031688;28;20673;-69
2021/03/24 01:06:08;;;;;;;5.37;3.63;;;5.10;91.00;12.60;100138.00;;;;5032061;28;20213;-68
2021/03/24 01:08:33;;;;;;;5.47;3.80;;;5.10;91.00;12.40;100128.00;;;;5032257;28;20922;-68
2021/03/24 01:11:00;;;;;;;6.90;4.53;;;5.10;91.00;12.60;100143.00;;;;5048249;28;20198;-68
2021/03/24 01:13:26;;;;;;;6.50;4.50;;;5.10;91.00;12.70;100133.00;;;;5016124;28;20240;-68
2021/03/24 01:15:52;;;;;;;6.10;4.20;;;5.10;91.00;12.70;100140.00;;;;5014714;28;20684;-68
2021/03/24 01:18:19;;;;;;;5.80;4.20;;;5.10;91.00;12.40;100142.00;;;;5048488;28;20186;-68
2021/03/24 01:20:45;;;;;;;6.20;4.20;;;5.10;91.00;12.40;100152.00;;;;5032294;28;20668;-68
2021/03/24 01:23:11;;;;;;;5.70;4.20;;;5.10;91.00;12.50;100147.00;;;;5032464;28;20305;-68
2021/03/24 01:25:37;;;;;;;6.93;3.93;;;5.10;91.00;12.60;100147.00;;;;5031326;28;20285;-68
2021/03/24 01:28:05;;;;;;;4.97;3.67;;;5.10;91.00;12.50;100134.00;;;;5016366;28;20439;-69
2021/03/24 01:30:36;;;;;;;5.93;3.97;;;5.10;91.00;12.60;100145.00;;;;5048285;28;20202;-68
2021/03/24 01:33:02;;;;;;;5.30;3.60;;;5.10;91.10;12.40;100129.00;;;;5015863;28;20328;-68
2021/03/24 01:35:28;;;;;;;5.67;3.93;;;5.10;91.00;12.60;100152.00;;;;5015517;28;20281;-68
2021/03/24 01:37:54;;;;;;;5.77;4.23;;;5.10;91.00;12.50;100143.00;;;;5048450;28;20932;-68
2021/03/24 01:40:31;;;;;;;6.00;3.92;;;5.10;91.00;12.50;100147.00;;;;5047795;28;20174;-68
2021/03/24 01:43:02;;;;;;;5.72;4.10;;;5.10;91.00;12.60;100136.00;;;;5032339;28;20211;-68
2021/03/24 01:45:28;;;;;;;6.85;4.32;;;5.10;91.10;12.70;100149.00;;;;5031114;28;20648;-67
2021/03/24 01:47:54;;;;;;;5.20;3.60;;;5.10;91.00;12.40;100147.00;;;;5050055;28;20182;-67
2021/03/24 01:50:28;;;;;;;5.40;3.63;;;5.10;91.10;12.50;100149.00;;;;5015021;28;20178;-67
2021/03/24 01:52:54;;;;;;;5.78;3.97;;;5.10;91.00;12.50;100150.00;;;;5015082;28;20468;-68
2021/03/24 01:55:20;;;;;;;5.77;3.43;;;5.10;91.00;12.70;100160.00;;;;5031728;28;20179;-67
2021/03/24 01:57:45;;;;;;;5.60;3.90;;;5.10;91.00;12.50;100168.00;;;;5015377;28;20414;-68
2021/03/24 02:00:26;;;;;;;5.53;4.07;;;5.10;91.00;12.30;100161.00;;;;5047667;28;20525;-67
2021/03/24 02:02:52;;;;;;;7.90;4.20;;;5.10;91.10;12.40;100165.00;;;;5033012;28;20194;-68
2021/03/24 02:05:17;;;;;;;5.30;3.53;;;5.10;91.00;12.60;100162.00;;;;5047578;28;20235;-69
2021/03/24 02:07:51;;;;;;;5.80;4.27;;;5.10;91.10;12.40;100169.00;;;;5048419;28;20186;-68
2021/03/24 02:10:38;;;;;;;5.32;3.90;;;5.10;91.00;12.80;100134.00;;;;5031767;28;20451;-68
2021/03/24 02:13:24;;;;;;;5.95;3.67;;;5.10;91.10;12.60;100172.00;;;;5017029;28;20295;-68
2021/03/24 02:15:54;;;;;;;5.50;3.50;;;5.10;91.10;12.60;100162.00;;;;5047570;28;20239;-68
2021/03/24 02:18:22;;;;;;;6.80;3.50;;;5.10;91.10;12.50;100137.00;;;;5015010;28;20182;-68
2021/03/24 02:20:59;;;;;;;4.95;3.67;;;5.10;91.00;12.60;100175.00;;;;5014405;28;20205;-68
2021/03/24 02:23:39;;;;;;;6.47;4.30;;;5.10;91.00;12.60;100173.00;;;;5031951;28;20181;-69
2021/03/24 02:26:27;;;;;;;5.95;4.07;;;5.10;91.00;12.70;100176.00;;;;5031748;28;20208;-68
2021/03/24 02:28:53;;;;;;;4.60;3.20;;;5.10;91.00;12.50;100171.00;;;;5048071;28;20232;-69
2021/03/24 02:31:21;;;;;;;5.35;3.72;;;5.10;91.00;12.50;100172.00;;;;5010837;28;20281;-69
2021/03/24 02:33:47;;;;;;;5.75;4.07;;;5.10;91.10;12.60;100170.00;;;;5027862;28;20219;-69
2021/03/24 02:36:16;;;;;;;5.70;3.93;;;5.10;91.00;12.60;100157.00;;;;5011570;28;20206;-69
2021/03/24 02:38:43;;;;;;;6.45;4.35;;;5.10;91.10;12.70;100162.00;;;;5012440;28;20183;-68
2021/03/24 02:41:09;;;;;;;6.00;4.35;;;5.10;91.10;12.40;100133.00;;;;5011205;28;20681;-68
2021/03/24 02:43:35;;;;;;;5.75;3.63;;;5.10;91.10;12.60;100157.00;;;;5011848;28;20179;-67
2021/03/24 02:46:03;;;;;;;5.60;3.70;;;5.10;91.00;12.60;100170.00;;;;5009895;28;20241;-68
2021/03/24 02:48:31;;;;;;;4.90;3.50;;;5.10;91.00;12.60;100174.00;;;;4995249;28;20423;-68
2021/03/24 02:50:58;;;;;;;4.85;3.45;;;5.10;91.10;12.60;100171.00;;;;5011557;28;20295;-68
2021/03/24 02:53:25;;;;;;;5.88;3.95;;;5.10;91.10;12.70;100172.00;;;;5015358;28;20705;-67
2021/03/24 02:55:50;;;;;;;5.50;3.72;;;5.10;91.10;12.60;100176.00;;;;5014679;28;20258;-68
2021/03/24 02:58:16;;;;;;;6.47;4.00;;;5.10;91.10;12.70;100178.00;;;;4998702;28;20290;-69
2021/03/24 03:00:42;;;;;;;5.43;3.83;;;5.10;91.00;12.80;100168.00;;;;5031218;28;20236;-67
2021/03/24 03:03:16;;;;;;;5.40;3.73;;;5.10;91.10;12.70;100169.00;;;;5031196;28;20190;-67
2021/03/24 03:05:42;;;;;;;6.07;4.28;;;5.10;91.10;12.60;100181.00;;;;4998206;28;20221;-67
2021/03/24 03:08:12;;;;;;;6.17;4.20;;;5.10;91.10;12.50;100176.00;;;;5047897;28;20179;-68
2021/03/24 03:10:57;;;;;;;5.85;3.50;;;5.10;91.10;12.70;100190.00;;;;5030546;28;20290;-67
2021/03/24 03:13:39;;;;;;;5.40;3.50;;;5.10;91.10;12.60;100171.00;;;;5031543;28;20245;-67
2021/03/24 03:16:21;;;;;;;5.18;3.38;;;5.10;91.10;12.60;100180.00;;;;4998074;28;20246;-67
2021/03/24 03:19:03;;;;;;;6.25;4.28;;;5.10;91.10;12.60;100193.00;;;;5031472;28;20187;-67
2021/03/24 03:21:34;;;;;;;6.00;3.90;;;5.10;91.10;12.60;100182.00;;;;5047628;28;20236;-68
2021/03/24 03:24:01;;;;;;;6.55;3.85;;;5.10;91.10;12.60;100188.00;;;;5014529;28;20175;-67
2021/03/24 03:26:27;;;;;;;5.15;3.30;;;5.10;91.10;12.70;100187.00;;;;5014818;28;20207;-67
2021/03/24 03:28:54;;;;;;;4.77;3.10;;;5.10;91.10;12.70;100185.00;;;;5030948;28;20210;-68
2021/03/24 03:31:32;;;;;;;6.63;4.32;;;5.10;91.10;12.60;100192.00;;;;5013715;28;20577;-67
2021/03/24 03:33:57;;;;;;;5.93;4.30;;;5.10;91.10;12.60;100183.00;;;;5015038;28;20693;-67
2021/03/24 03:36:24;;;;;;;5.80;4.37;;;5.10;91.10;12.80;100177.00;;;;5030191;28;20305;-67
2021/03/24 03:38:50;;;;;;;6.30;4.00;;;5.10;91.10;12.60;100154.00;;;;5030786;28;20245;-67
2021/03/24 03:41:16;;;;;;;5.50;3.70;;;5.10;91.10;12.60;100183.00;;;;5030381;28;20361;-67
2021/03/24 03:43:43;;;;;;;6.53;3.95;;;5.10;91.10;12.80;100181.00;;;;5031002;28;20179;-68
2021/03/24 03:46:13;;;;;;;6.22;4.10;;;5.10;91.10;12.70;100161.00;;;;5029732;28;20207;-67
2021/03/24 03:48:38;;;;;;;5.80;3.60;;;5.10;91.10;12.50;100183.00;;;;5030630;28;20182;-67
2021/03/24 03:51:07;;;;;;;5.83;4.10;;;5.10;91.10;12.60;100177.00;;;;5029817;28;20628;-67
2021/03/24 03:54:13;;;;;;;5.25;3.40;;;5.10;91.10;12.50;100166.00;;;;5014510;28;20625;-68
2021/03/24 03:57:03;;;;;;;5.65;3.72;;;5.10;91.10;12.70;100173.00;;;;4984238;28;20218;-67
2021/03/24 03:59:45;;;;;;;5.88;4.18;;;5.10;91.10;12.80;100179.00;;;;5030023;28;20391;-67
2021/03/24 04:02:14;;;;;;;6.00;4.00;;;5.10;91.10;12.70;100184.00;;;;5013046;28;20203;-67
2021/03/24 04:04:47;;;;;;;6.15;3.85;;;5.10;91.10;12.60;100187.00;;;;5030480;28;20370;-67
2021/03/24 04:07:33;;;;;;;5.50;3.80;;;5.10;91.10;12.60;100171.00;;;;5029738;28;20213;-67
2021/03/24 04:09:59;;;;;;;5.28;3.90;;;5.10;91.10;12.40;100174.00;;;;5030465;28;20604;-66
2021/03/24 04:12:26;;;;;;;5.90;3.93;;;5.10;91.10;12.50;100179.00;;;;5029343;28;20214;-67
2021/03/24 04:14:52;;;;;;;5.70;3.72;;;5.10;91.10;12.70;100181.00;;;;5029979;28;20179;-67
2021/03/24 04:17:23;;;;;;;5.40;3.67;;;5.10;91.10;12.50;100177.00;;;;4997233;28;20277;-67
2021/03/24 04:19:50;;;;;;;7.22;3.80;;;5.10;91.10;12.80;100194.00;;;;5013463;28;20457;-66
2021/03/24 04:22:18;;;;;;;5.53;3.83;;;5.10;91.10;12.70;100188.00;;;;5029965;28;20203;-67
2021/03/24 04:24:47;;;;;;;4.82;3.83;;;5.10;91.10;12.80;100195.00;;;;5013790;28;20253;-67
2021/03/24 04:27:14;;;;;;;6.45;4.22;;;5.10;91.10;12.80;100200.00;;;;4996067;28;20290;-67
2021/03/24 04:29:48;;;;;;;5.35;4.03;;;5.10;91.10;12.60;100198.00;;;;5013607;28;20183;-67
2021/03/24 04:32:14;;;;;;;5.28;3.47;;;5.10;91.10;12.60;100160.00;;;;5029490;28;20233;-67
2021/03/24 04:34:40;;;;;;;5.80;3.97;;;5.10;91.10;12.80;100209.00;;;;5012142;28;20715;-68
2021/03/24 04:37:34;;;;;;;6.07;3.43;;;5.10;91.10;12.60;100201.00;;;;5012201;28;20457;-67
2021/03/24 04:40:08;;;;;;;6.30;4.00;;;5.10;91.10;12.60;100204.00;;;;5045959;28;20521;-67
2021/03/24 04:42:35;;;;;;;5.72;4.13;;;5.10;91.10;12.60;100203.00;;;;5045198;28;20207;-67
2021/03/24 04:45:19;;;;;;;5.55;3.80;;;5.10;91.10;12.60;100194.00;;;;5029764;28;20617;-66
2021/03/24 04:47:50;;;;;;;5.72;3.72;;;5.10;91.10;12.70;100210.00;;;;5012830;28;20186;-67
2021/03/24 04:50:37;;;;;;;6.55;3.85;;;5.20;91.10;12.40;100217.00;;;;5013187;28;20179;-66
2021/03/24 04:53:04;;;;;;;6.15;3.95;;;5.20;91.10;12.50;100208.00;;;;5028595;28;20221;-66
2021/03/24 04:55:29;;;;;;;5.85;4.32;;;5.10;91.10;12.50;100207.00;;;;5028788;28;20203;-66
2021/03/24 04:57:57;;;;;;;5.80;4.00;;;5.10;91.10;12.40;100205.00;;;;5012598;28;20194;-67
2021/03/24 05:00:47;;;;;;;5.25;3.58;;;5.20;91.20;12.50;100216.00;;;;5012971;28;20193;-67
2021/03/24 05:03:14;;;;;;;5.45;3.53;;;5.10;91.10;12.40;100216.00;;;;5013548;28;20658;-67
2021/03/24 05:05:47;;;;;;;6.60;4.35;;;5.10;91.10;12.50;100223.00;;;;5029231;28;20273;-68
2021/03/24 05:08:37;;;;;;;6.65;4.03;;;5.10;91.10;12.40;100225.00;;;;5012666;28;20228;-68
2021/03/24 05:11:10;;;;;;;5.50;3.90;;;5.10;91.10;12.60;100234.00;;;;5028644;28;20207;-67
2021/03/24 05:13:42;;;;;;;7.10;4.20;;;5.10;91.10;12.70;100230.00;;;;5012759;28;20230;-67
2021/03/24 05:16:27;;;;;;;5.28;3.80;;;5.10;91.10;12.60;100225.00;;;;5027889;28;20210;-67
2021/03/24 05:18:54;;;;;;;5.63;3.90;;;5.10;91.10;12.60;100232.00;;;;5028368;28;20233;-67
2021/03/24 05:21:52;;;;;;;5.75;4.03;;;5.10;91.10;12.70;100232.00;;;;5012652;28;20261;-67
2021/03/24 05:24:29;;;;;;;6.70;4.00;;;5.10;91.10;12.60;100230.00;;;;5045105;28;20527;-68
2021/03/24 05:27:11;;;;;;;5.88;3.85;;;5.10;91.10;12.30;100237.00;;;;5044973;28;20288;-67
2021/03/24 05:29:41;;;;;;;5.00;3.55;;;5.20;91.20;12.60;100233.00;;;;5012539;28;20650;-67
2021/03/24 05:32:14;;;;;;;5.47;3.83;;;5.10;91.10;12.50;100247.00;;;;5011285;28;20321;-68
2021/03/24 05:34:43;;;;;;;6.93;4.30;;;5.10;91.10;12.40;100253.00;;;;5013747;28;20546;-67
2021/03/24 05:37:10;;;;;;;5.17;3.23;;;5.10;91.10;12.30;100248.00;;;;5027600;28;20207;-67
2021/03/24 05:39:40;;;;;;;6.22;4.30;;;5.20;91.20;12.50;100248.00;;;;5012581;28;20257;-68
2021/03/24 05:42:47;;;;;;;5.88;3.60;;;5.20;91.20;12.30;100248.00;;;;5028319;28;20617;-67
2021/03/24 05:45:47;;;;;;;6.20;4.00;;;5.20;91.20;12.40;100251.00;;;;5020992;28;20369;-67
2021/03/24 05:48:34;;;;;;;5.15;3.58;;;5.10;91.20;12.60;100249.00;;;;5044798;28;20185;-68
2021/03/24 05:51:41;;;;;;;6.88;4.00;;;5.20;91.20;12.60;100243.00;;;;5028488;28;20202;-67
2021/03/24 05:54:37;;;;;;;5.47;3.58;;;5.20;91.20;12.30;100254.00;;;;5000877;28;20238;-67
2021/03/24 05:57:10;;;;;;;5.65;3.53;;;5.20;91.20;12.30;100244.00;;;;5029649;28;20201;-67
2021/03/24 05:59:48;;;;;;;5.50;3.65;;;5.10;91.10;12.50;100250.00;;;;5043845;28;20182;-67
2021/03/24 06:02:32;;;;;;;6.22;4.15;;;5.20;91.20;12.50;100239.00;;;;5044599;28;20247;-67
2021/03/24 06:05:16;;;;;;;5.90;3.72;;;5.20;91.20;12.50;100259.00;;;;5013927;28;20210;-67
2021/03/24 06:08:33;;;;;;;5.70;3.88;;;5.10;91.10;12.60;100260.00;;;;5027921;28;20226;-67
2021/03/24 06:11:25;;;;;;;5.40;3.72;;;5.10;91.10;12.30;100260.00;;;;4962195;28;20242;-67
2021/03/24 06:14:16;;;;;;;6.00;3.60;;;5.20;91.20;12.40;100258.00;;;;5029092;28;20238;-67
2021/03/24 06:17:19;;;;;;;5.95;3.70;;;5.20;91.20;12.50;100262.00;;;;5044860;28;20207;-67
2021/03/24 06:19:59;;;;;;;5.70;3.33;;;5.20;91.20;12.50;100266.00;;;;5028715;28;20317;-67
2021/03/24 06:23:15;;;;;;;4.88;3.45;;;5.20;91.20;12.70;100269.00;;;;5028301;28;20202;-67
2021/03/24 06:26:08;;;;;;;6.07;3.65;;;5.20;91.20;12.50;100271.00;;;;4984021;28;20378;-67
2021/03/24 06:29:01;;;;;;;4.95;3.35;;;5.20;91.20;12.40;100274.00;;;;5046095;28;20538;-67
2021/03/24 06:31:49;;;;;;;4.75;3.20;;;5.20;91.20;12.30;100274.00;;;;5031952;28;20245;-67
2021/03/24 06:34:43;;;;;;;5.72;3.55;;;5.20;91.20;12.10;100269.00;;;;5048022;28;20302;-67
2021/03/24 06:37:46;;;;;;;4.70;3.10;;;5.20;91.20;12.30;100273.00;;;;5033228;28;20210;-67
2021/03/24 06:40:38;;;;;;;5.25;3.25;;;5.20;91.20;12.50;100276.00;;;;5048421;28;20594;-67
2021/03/24 06:43:37;;;;;;;5.25;3.65;;;5.20;91.20;12.30;100286.00;;;;5023718;28;20226;-67
2021/03/24 06:46:59;;;;;;;5.93;3.65;;;5.10;91.10;12.20;100291.00;;;;5032234;28;20199;-67
2021/03/24 06:49:34;;;;;;;6.03;3.60;;;5.20;91.20;12.40;100288.00;;;;4970851;28;20196;-67
2021/03/24 06:52:44;;;;;;;4.93;3.65;;;5.20;91.20;12.40;100293.00;;;;4971578;28;20262;-67
2021/03/24 06:56:06;;;;;;;5.95;3.92;;;5.20;91.20;12.30;100291.00;;;;5026276;28;20268;-67
2021/03/24 06:59:33;;;;;;;5.65;3.15;;;5.20;91.20;12.20;100294.00;;;;5032555;28;20305;-67
2021/03/24 07:02:32;;;;;;;5.40;3.28;;;5.20;91.20;12.40;100292.00;;;;4956104;28;20244;-67
2021/03/24 07:05:44;;;;;;;5.40;3.50;;;5.20;91.20;12.30;100297.00;;;;5032359;28;20186;-67
2021/03/24 07:08:42;;;;;;;5.30;3.45;;;5.20;91.20;12.40;100296.00;;;;5031049;28;20680;-67
2021/03/24 07:11:53;;;;;;;5.82;3.17;;;5.20;91.20;12.30;100302.00;;;;5031671;28;20218;-67
2021/03/24 07:14:44;;;;;;;5.80;3.60;;;5.20;91.20;12.20;100296.00;;;;5047416;28;20221;-67
2021/03/24 07:17:39;;;;;;;6.78;3.58;;;5.20;91.20;12.30;100299.00;;;;5046089;28;20229;-67
2021/03/24 07:20:15;;;;;;;5.80;3.90;;;5.20;91.20;12.20;100304.00;;;;5044548;28;20187;-67
2021/03/24 07:22:56;;;;;;;5.90;3.75;;;5.20;91.20;12.30;100310.00;;;;5030978;28;20187;-67
2021/03/24 07:25:41;;;;;;;5.97;3.22;;;5.20;91.20;12.10;100310.00;;;;5030971;28;20182;-67
2021/03/24 07:28:45;;;;;;;5.20;3.58;;;5.20;91.10;12.40;100308.00;;;;5045652;28;20179;-67
2021/03/24 07:31:29;;;;;;;5.07;3.00;;;5.20;91.10;12.20;100306.00;;;;5048407;28;20237;-67
2021/03/24 07:34:06;;;;;;;5.43;3.72;;;5.20;91.10;12.30;100320.00;;;;5051648;28;20344;-67
2021/03/24 07:37:11;;;;;;;5.38;3.35;;;5.20;91.20;12.40;100315.00;;;;5051647;28;20212;-67
2021/03/24 07:39:51;;;;;;;5.10;3.22;;;5.20;91.20;12.30;100312.00;;;;5050769;28;20596;-67
2021/03/24 07:42:39;;;;;;;7.15;4.50;;;5.20;91.10;12.60;100319.00;;;;5051561;28;20225;-67
2021/03/24 07:45:23;;;;;;;5.80;3.78;;;5.20;91.20;12.40;100320.00;;;;5050336;28;20613;-67
2021/03/24 07:48:07;;;;;;;5.32;3.47;;;5.20;91.20;12.40;100316.00;;;;5050949;28;20185;-67
2021/03/24 07:50:47;;;;;;;5.00;3.15;;;5.20;91.20;12.40;100318.00;;;;5050018;28;20201;-67
2021/03/24 07:53:36;;;;;;;6.22;3.55;;;5.20;91.20;12.30;100319.00;;;;5050719;28;20206;-67
2021/03/24 07:56:35;;;;;;;4.82;3.33;;;5.20;91.20;12.50;100309.00;;;;5049762;28;20249;-67
2021/03/24 07:59:25;;;;;;;6.30;3.38;;;5.20;91.20;12.40;100307.00;;;;5033715;28;20182;-67
2021/03/24 08:02:54;;;;;;;5.80;3.58;;;5.20;91.20;12.30;100312.00;;;;5051593;28;20198;-67
2021/03/24 08:05:31;;;;;;;5.65;3.40;;;5.20;91.10;12.30;100315.00;;;;5006407;28;20606;-67
2021/03/24 08:07:57;;;;;;;5.05;2.92;;;5.20;91.20;12.50;100316.00;;;;5051393;28;20194;-67
2021/03/24 08:10:35;;;;;;;6.70;3.60;;;5.20;91.20;12.30;100323.00;;;;5051146;28;20200;-67
2021/03/24 08:13:31;;;;;;;6.20;4.07;;;5.20;91.20;12.30;100325.00;;;;5033475;28;20747;-67
2021/03/24 08:16:22;;;;;;;6.20;3.70;;;5.20;91.10;12.20;100319.00;;;;5033147;28;20675;-67
2021/03/24 08:19:08;;;;;;;5.65;3.78;;;5.20;91.10;12.30;100317.00;;;;5049872;28;20186;-67
2021/03/24 08:22:17;;;;;;;5.47;3.45;;;5.20;91.10;12.30;100317.00;;;;5032966;28;20198;-68
2021/03/24 08:24:57;;;;;;;5.80;3.67;;;5.20;91.20;12.30;100310.00;;;;5049437;28;20186;-67
2021/03/24 08:28:08;;;;;;;4.75;2.90;;;5.20;91.10;12.20;100318.00;;;;5032958;28;20206;-67
2021/03/24 08:31:05;;;;;;;5.22;3.20;;;5.20;91.10;12.40;100311.00;;;;5033132;28;20562;-67
2021/03/24 08:33:45;;;;;;;7.35;3.53;;;5.20;91.10;12.40;100316.00;;;;5009286;28;20679;-67
2021/03/24 08:36:44;;;;;;;5.78;3.85;;;5.20;91.10;12.40;100307.00;;;;5010070;28;20208;-67
2021/03/24 08:39:47;;;;;;;6.32;3.88;;;5.20;91.20;12.30;100304.00;;;;5026667;28;20191;-67
2021/03/24 08:42:33;;;;;;;5.63;3.55;;;5.20;91.10;12.40;100306.00;;;;5011723;28;20204;-67
2021/03/24 08:45:14;;;;;;;5.93;3.78;;;5.20;91.10;12.40;100306.00;;;;5011059;28;20202;-67
2021/03/24 08:47:42;;;;;;;5.75;3.72;;;5.20;91.50;12.30;100311.00;;;;5025869;28;20187;-67
2021/03/24 08:50:44;;;;;;;6.18;3.95;;;5.20;91.20;12.50;100308.00;;;;5008942;28;20244;-67
2021/03/24 08:53:53;;;;;;;5.45;3.35;;;5.20;91.20;12.40;100304.00;;;;4999689;28;20700;-67
2021/03/24 08:56:59;;;;;;;5.85;3.70;;;5.20;91.20;12.30;100304.00;;;;5021631;28;20694;-67
2021/03/24 08:59:35;;;;;;;5.25;3.72;;;5.20;91.20;12.30;100297.00;;;;4992879;28;20624;-67
2021/03/24 09:02:09;;;;;;;6.35;4.00;;;5.20;91.20;12.20;100298.00;;;;5008888;28;20211;-67
2021/03/24 09:05:12;;;;;;;6.57;4.45;;;5.20;91.20;12.40;100308.00;;;;5011016;28;20214;-67
2021/03/24 09:08:12;;;;;;;6.00;3.83;;;5.20;91.20;12.30;100301.00;;;;5009134;28;20191;-67
2021/03/24 09:11:22;;;;;;;6.93;4.18;;;5.20;91.20;12.00;100297.00;;;;5023253;28;20204;-67
2021/03/24 09:14:39;;;;;;;6.22;3.60;;;5.20;91.20;12.30;100291.00;;;;5010248;28;20622;-67
2021/03/24 09:17:04;;;;;;;6.65;4.30;;;5.20;91.20;12.30;100295.00;;;;4997951;28;20712;-67
2021/03/24 09:19:53;;;;;;;6.37;3.70;;;5.20;91.20;12.40;100288.00;;;;5010771;28;20184;-68
2021/03/24 09:23:15;;;;;;;5.85;3.72;;;5.20;91.20;12.20;100288.00;;;;5023505;28;20204;-67
2021/03/24 09:25:54;;;;;;;7.45;3.90;;;5.20;91.20;12.20;100284.00;;;;5025249;28;20199;-67
2021/03/24 09:28:47;;;;;;;6.18;4.25;;;5.20;91.20;12.30;100284.00;;;;5009321;28;20249;-67
2021/03/24 09:31:47;;;;;;;6.75;3.58;;;5.20;91.20;12.30;100287.00;;;;5032793;28;20302;-67
2021/03/24 09:34:53;;;;;;;5.38;4.05;;;5.20;91.20;12.20;100278.00;;;;5050141;28;20264;-67
2021/03/24 09:37:23;;;;;;;5.40;3.85;;;5.20;91.20;11.90;100269.00;;;;5048385;28;20209;-67
2021/03/24 09:39:54;;;;;;;6.78;4.03;;;5.20;91.10;12.00;100278.00;;;;5016008;28;20193;-67
2021/03/24 09:42:31;;;;;;;5.85;3.90;;;5.20;91.10;12.20;100273.00;;;;5016136;28;20209;-67
2021/03/24 09:45:17;;;;;;;5.53;3.70;;;5.30;91.20;12.10;100275.00;;;;5049758;28;20209;-67
2021/03/24 09:47:52;;;;;;;5.90;3.83;;;5.20;91.20;12.20;100265.00;;;;5032098;28;20186;-67
2021/03/24 09:50:43;;;;;;;6.18;4.05;;;5.30;91.20;12.30;100283.00;;;;5031787;28;20280;-67
2021/03/24 09:53:16;;;;;;;5.57;3.50;;;5.20;91.10;12.20;100274.00;;;;5048930;28;20205;-67
2021/03/24 09:55:46;;;;;;;6.80;3.85;;;5.20;91.20;12.40;100274.00;;;;5047879;28;20248;-67
2021/03/24 09:58:24;;;;;;;5.45;3.67;;;5.30;91.20;12.30;100274.00;;;;5015620;28;20547;-67
2021/03/24 10:01:02;;;;;;;6.88;4.50;;;5.30;91.20;12.40;100272.00;;;;5033013;28;20760;-67
2021/03/24 10:03:49;;;;;;;6.20;4.07;;;5.20;91.10;12.30;100261.00;;;;5035398;28;20189;-67
2021/03/24 10:06:28;;;;;;;6.15;3.80;;;5.30;91.20;12.40;100271.00;;;;5053624;28;20205;-68
2021/03/24 10:09:06;;;;;;;6.05;3.88;;;5.20;91.10;12.40;100266.00;;;;5036406;28;20173;-67
2021/03/24 10:11:42;;;;;;;5.75;3.38;;;5.20;91.50;12.50;100252.00;;;;5051960;28;20288;-67
2021/03/24 10:14:28;;;;;;;5.88;3.80;;;5.30;91.20;12.40;100252.00;;;;5019834;28;20259;-67
2021/03/24 10:17:02;;;;;;;6.35;3.53;;;5.30;91.20;12.70;100252.00;;;;5019914;28;20198;-67
2021/03/24 10:19:39;;;;;;;6.03;4.15;;;5.30;91.20;12.60;100245.00;;;;5019243;28;20548;-67
2021/03/24 10:22:24;;;;;;;6.10;3.97;;;5.30;91.20;12.60;100261.00;;;;5019255;28;20699;-67
2021/03/24 10:25:11;;;;;;;6.05;4.25;;;5.20;91.10;12.60;100255.00;;;;5019761;28;20190;-67
2021/03/24 10:27:40;;;;;;;5.93;3.72;;;5.30;91.20;12.60;100255.00;;;;5019262;28;20182;-68
2021/03/24 10:30:29;;;;;;;6.05;4.03;;;5.30;91.20;12.60;100255.00;;;;5019536;28;20660;-67
2021/03/24 10:33:08;;;;;;;5.97;3.85;;;5.30;91.20;12.70;100258.00;;;;5038160;28;20259;-67
2021/03/24 10:35:46;;;;;;;7.40;4.63;;;5.30;91.20;12.60;100254.00;;;;5052388;28;20208;-68
2021/03/24 10:38:42;;;;;;;6.28;3.90;;;5.30;91.20;12.60;100253.00;;;;5035289;28;20637;-67
2021/03/24 10:41:21;;;;;;;6.60;3.90;;;5.30;91.20;12.70;100249.00;;;;5036078;28;20554;-67
2021/03/24 10:44:08;;;;;;;6.75;3.88;;;5.30;91.20;12.70;100234.00;;;;5053080;28;20330;-67
2021/03/24 10:47:09;;;;;;;7.63;4.82;;;5.30;91.20;12.70;100243.00;;;;5034872;28;20202;-67
2021/03/24 10:50:14;;;;;;;6.70;4.35;;;5.30;91.20;12.60;100244.00;;;;5051755;28;20189;-67
2021/03/24 10:52:59;;;;;;;6.60;4.30;;;5.30;91.20;12.80;100237.00;;;;5021227;28;20200;-67
2021/03/24 10:55:26;;;;;;;6.78;4.22;;;5.30;91.20;12.70;100234.00;;;;5034470;28;20647;-67
2021/03/24 10:57:54;;;;;;;6.60;4.22;;;5.30;91.20;12.70;100250.00;;;;5034805;28;20174;-67
2021/03/24 11:00:32;;;;;;;7.22;4.45;;;5.30;91.20;12.70;100238.00;;;;5052993;28;20537;-67
2021/03/24 11:03:19;;;;;;;7.20;4.60;;;5.30;91.20;12.70;100251.00;;;;5050650;28;20545;-67
2021/03/24 11:06:04;;;;;;;6.53;4.53;;;5.30;91.20;12.90;100244.00;;;;5034840;28;20198;-67
2021/03/24 11:09:04;;;;;;;6.85;4.55;;;5.30;91.20;12.90;100247.00;;;;5016918;28;20580;-67
2021/03/24 11:11:49;;;;;;;6.70;4.65;;;5.30;91.20;12.70;100246.00;;;;5032765;28;20194;-67
2021/03/24 11:14:23;;;;;;;7.20;4.55;;;5.30;91.20;12.80;100241.00;;;;5050867;28;20306;-67
2021/03/24 11:17:03;;;;;;;5.78;3.88;;;5.30;91.20;12.70;100246.00;;;;5034434;28;20205;-67
2021/03/24 11:19:44;;;;;;;7.20;4.40;;;5.30;91.20;12.80;100239.00;;;;5035657;28;20193;-67
2021/03/24 11:22:37;;;;;;;6.70;4.80;;;5.30;91.20;12.80;100229.00;;;;5017853;28;20580;-67
2021/03/24 11:25:43;;;;;;;6.65;4.50;;;5.30;91.20;12.80;100220.00;;;;5051422;28;20178;-67
2021/03/24 11:28:30;;;;;;;6.35;4.35;;;5.30;91.20;12.80;100223.00;;;;4993501;28;20300;-67
2021/03/24 11:31:11;;;;;;;6.75;4.10;;;5.30;91.20;12.70;100224.00;;;;5033983;28;20643;-67
2021/03/24 11:34:03;;;;;;;6.60;4.45;;;5.30;91.20;12.70;100226.00;;;;5017516;28;20221;-67
2021/03/24 11:36:35;;;;;;;8.15;5.30;;;5.30;91.20;12.60;100225.00;;;;5017594;28;20248;-67
2021/03/24 11:39:12;;;;;;;8.60;5.10;;;5.30;91.20;12.70;100216.00;;;;5018570;28;20189;-67
2021/03/24 11:41:39;;;;;;;8.10;4.47;;;5.30;91.20;12.80;100218.00;;;;5018203;28;20212;-68
2021/03/24 11:44:10;;;;;;;6.65;4.40;;;5.30;91.20;12.80;100213.00;;;;5034148;28;20265;-68
2021/03/24 11:47:13;;;;;;;7.57;4.40;;;5.30;91.20;12.80;100221.00;;;;5052126;28;20202;-67
2021/03/24 11:49:57;;;;;;;7.13;4.97;;;5.30;91.20;12.80;100223.00;;;;5050946;28;20253;-67